createdAt,value
2022-11-14T00:00:32.284Z,7.16
2022-11-14T00:03:07.356Z,7.14
2022-11-14T00:05:41.549Z,7.17
2022-11-14T00:08:19.628Z,7.22
2022-11-14T00:10:50.797Z,7.23
2022-11-14T00:13:22.507Z,7.25
2022-11-14T00:15:54.473Z,7.25
2022-11-14T00:18:27.248Z,7.27
2022-11-14T00:20:57.210Z,7.25
2022-11-14T00:23:26.924Z,7.25
2022-11-14T00:25:56.632Z,7.27
2022-11-14T00:28:26.495Z,7.27
2022-11-14T00:30:56.247Z,7.29
2022-11-14T00:33:28.618Z,7.29
2022-11-14T00:35:59.556Z,7.31
2022-11-14T00:38:29.549Z,7.34
2022-11-14T00:40:59.480Z,7.34
2022-11-14T00:43:29.645Z,7.36
2022-11-14T00:45:59.370Z,7.39
2022-11-14T00:48:32.022Z,7.40
2022-11-14T00:51:01.999Z,7.39
2022-11-14T00:53:31.751Z,7.41
2022-11-14T00:56:01.512Z,7.41
2022-11-14T00:58:31.445Z,7.45
2022-11-14T01:01:01.554Z,7.45
2022-11-14T01:03:33.970Z,7.46
2022-11-14T01:06:08.347Z,7.48
2022-11-14T01:08:38.611Z,7.47
2022-11-14T01:11:13.556Z,7.47
2022-11-14T01:13:43.329Z,7.49
2022-11-14T01:16:13.652Z,7.48
2022-11-14T01:18:45.982Z,7.49
2022-11-14T01:21:17.127Z,7.51
2022-11-14T01:23:46.829Z,7.54
2022-11-14T01:26:17.626Z,7.58
2022-11-14T01:28:47.314Z,7.58
2022-11-14T01:31:19.561Z,7.56
2022-11-14T01:33:54.932Z,7.58
2022-11-14T01:36:25.119Z,7.62
2022-11-14T01:38:56.496Z,7.65
2022-11-14T01:41:26.231Z,7.68
2022-11-14T01:43:55.911Z,7.71
2022-11-14T01:46:29.211Z,7.77
2022-11-14T01:49:06.429Z,7.80
2022-11-14T01:51:41.050Z,7.82
2022-11-14T01:54:17.038Z,7.84
2022-11-14T01:56:51.810Z,7.85
2022-11-14T01:59:25.355Z,7.85
2022-11-14T02:01:58.140Z,7.82
2022-11-14T02:04:33.574Z,7.79
2022-11-14T02:07:06.469Z,7.72
2022-11-14T02:09:39.814Z,7.69
2022-11-14T02:12:13.078Z,7.69
2022-11-14T02:14:45.373Z,7.68
2022-11-14T02:17:29.673Z,7.66
2022-11-14T02:20:09.139Z,7.68
2022-11-14T02:22:38.933Z,7.68
2022-11-14T02:25:09.971Z,7.72
2022-11-14T02:27:42.254Z,7.77
2022-11-14T02:30:15.661Z,7.80
2022-11-14T02:33:09.420Z,7.84
2022-11-14T02:35:39.068Z,7.87
2022-11-14T02:38:08.857Z,7.85
2022-11-14T02:40:38.556Z,7.86
2022-11-14T02:43:08.308Z,7.84
2022-11-14T02:45:38.040Z,7.80
2022-11-14T02:48:08.615Z,7.80
2022-11-14T02:50:41.471Z,7.84
2022-11-14T02:53:11.203Z,7.85
2022-11-14T02:55:40.912Z,7.86
2022-11-14T02:58:10.606Z,7.86
2022-11-14T03:00:59.164Z,7.84
2022-11-14T03:03:30.180Z,7.84
2022-11-14T03:06:05.820Z,7.82
2022-11-14T03:08:35.861Z,7.83
2022-11-14T03:11:08.051Z,7.84
2022-11-14T03:13:38.297Z,7.85
2022-11-14T03:16:10.260Z,7.88
2022-11-14T03:18:39.983Z,7.86
2022-11-14T03:21:13.912Z,7.89
2022-11-14T03:23:44.393Z,7.87
2022-11-14T03:26:16.806Z,7.85
2022-11-14T03:28:46.926Z,7.86
2022-11-14T03:31:17.398Z,7.86
2022-11-14T03:33:47.248Z,7.87
2022-11-14T03:36:19.759Z,7.87
2022-11-14T03:38:49.476Z,7.87
2022-11-14T03:41:19.195Z,7.84
2022-11-14T03:43:48.894Z,7.84
2022-11-14T03:46:18.607Z,7.80
2022-11-14T03:48:48.290Z,7.80
2022-11-14T03:51:20.672Z,7.77
2022-11-14T03:53:50.368Z,7.76
2022-11-14T03:56:20.091Z,7.77
2022-11-14T03:58:49.822Z,7.75
2022-11-14T04:01:19.600Z,7.79
2022-11-14T04:03:49.433Z,7.76
2022-11-14T04:06:21.877Z,7.77
2022-11-14T04:08:52.029Z,7.79
2022-11-14T04:11:22.291Z,7.80
2022-11-14T04:13:51.979Z,7.82
2022-11-14T04:16:21.690Z,7.82
2022-11-14T04:18:51.419Z,7.83
2022-11-14T04:21:23.738Z,7.85
2022-11-14T04:23:53.451Z,7.87
2022-11-14T04:26:23.148Z,7.85
2022-11-14T04:28:52.843Z,7.84
2022-11-14T04:31:22.643Z,7.85
2022-11-14T04:33:52.314Z,7.87
2022-11-14T04:36:24.632Z,7.90
2022-11-14T04:38:54.320Z,7.93
2022-11-14T04:41:24.002Z,7.94
2022-11-14T04:43:53.717Z,7.94
2022-11-14T04:46:23.434Z,7.95
2022-11-14T04:48:53.112Z,7.95
2022-11-14T04:51:25.442Z,7.92
2022-11-14T04:53:55.182Z,7.89
2022-11-14T04:56:25.627Z,7.90
2022-11-14T04:58:55.344Z,7.92
2022-11-14T05:01:25.178Z,7.89
2022-11-14T05:03:54.907Z,7.86
2022-11-14T05:06:27.223Z,7.87
2022-11-14T05:08:56.919Z,7.87
2022-11-14T05:11:29.250Z,7.89
2022-11-14T05:13:59.207Z,7.91
2022-11-14T05:16:28.934Z,7.91
2022-11-14T05:18:58.623Z,7.92
2022-11-14T05:21:30.923Z,7.92
2022-11-14T05:24:00.740Z,7.96
2022-11-14T05:26:30.499Z,7.97
2022-11-14T05:29:00.274Z,7.96
2022-11-14T05:31:30.388Z,7.94
2022-11-14T05:34:00.258Z,7.94
2022-11-14T05:36:32.601Z,7.94
2022-11-14T05:39:02.466Z,7.95
2022-11-14T05:41:32.218Z,8.00
2022-11-14T05:44:01.903Z,8.02
2022-11-14T05:46:31.631Z,8.05
2022-11-14T05:49:01.383Z,8.04
2022-11-14T05:51:33.744Z,8.01
2022-11-14T05:54:03.498Z,8.00
2022-11-14T05:56:33.183Z,7.95
2022-11-14T05:59:03.113Z,7.93
2022-11-14T06:01:34.107Z,7.89
2022-11-14T06:04:03.887Z,7.86
2022-11-14T06:06:36.328Z,7.82
2022-11-14T06:09:06.149Z,7.77
2022-11-14T06:11:35.842Z,7.77
2022-11-14T06:14:10.502Z,7.76
2022-11-14T06:16:41.944Z,7.76
2022-11-14T06:19:11.658Z,7.75
2022-11-14T06:21:43.932Z,7.71
2022-11-14T06:24:13.624Z,7.69
2022-11-14T06:26:43.323Z,7.66
2022-11-14T06:29:13.590Z,7.61
2022-11-14T06:31:43.401Z,7.57
2022-11-14T06:34:14.515Z,7.55
2022-11-14T06:36:46.802Z,7.52
2022-11-14T06:39:16.508Z,7.50
2022-11-14T06:41:46.236Z,7.44
2022-11-14T06:44:16.499Z,7.40
2022-11-14T06:46:46.253Z,7.37
2022-11-14T06:49:15.925Z,7.37
2022-11-14T06:51:48.261Z,7.37
2022-11-14T06:54:18.211Z,7.39
2022-11-14T06:56:48.478Z,7.40
2022-11-14T06:59:18.166Z,7.38
2022-11-14T07:01:47.887Z,7.40
2022-11-14T07:04:17.774Z,7.40
2022-11-14T07:06:50.200Z,7.41
2022-11-14T07:09:19.938Z,7.45
2022-11-14T07:11:49.700Z,7.45
2022-11-14T07:14:19.452Z,7.43
2022-11-14T07:16:49.840Z,7.42
2022-11-14T07:19:19.620Z,7.42
2022-11-14T07:21:52.192Z,7.46
2022-11-14T07:24:22.085Z,7.49
2022-11-14T07:26:52.095Z,7.53
2022-11-14T07:29:23.135Z,7.57
2022-11-14T07:31:53.027Z,7.62
2022-11-14T07:34:23.033Z,7.63
2022-11-14T07:36:55.573Z,7.66
2022-11-14T07:39:25.396Z,7.66
2022-11-14T07:41:55.115Z,7.70
2022-11-14T07:44:24.856Z,7.74
2022-11-14T07:46:54.684Z,7.77
2022-11-14T07:49:24.473Z,7.79
2022-11-14T07:51:56.899Z,7.84
2022-11-14T07:54:26.680Z,7.89
2022-11-14T07:56:56.449Z,7.93
2022-11-14T07:59:26.179Z,7.96
2022-11-14T08:01:55.997Z,7.99
2022-11-14T08:04:26.276Z,8.13
2022-11-14T08:06:58.732Z,8.20
2022-11-14T08:09:28.543Z,8.22
2022-11-14T08:11:58.369Z,8.20
2022-11-14T08:14:28.194Z,8.14
2022-11-14T08:16:58.000Z,8.10
2022-11-14T08:19:27.819Z,8.05
2022-11-14T08:22:00.189Z,8.06
2022-11-14T08:24:29.924Z,8.05
2022-11-14T08:26:59.601Z,8.01
2022-11-14T08:29:29.388Z,7.99
2022-11-14T08:32:00.258Z,7.97
2022-11-14T08:34:30.545Z,7.90
2022-11-14T08:37:04.347Z,7.82
2022-11-14T08:39:34.136Z,7.78
2022-11-14T08:42:04.464Z,7.75
2022-11-14T08:44:34.252Z,7.78
2022-11-14T08:47:03.993Z,7.77
2022-11-14T08:49:33.796Z,7.77
2022-11-14T08:52:06.471Z,7.78
2022-11-14T08:54:36.271Z,7.75
2022-11-14T08:57:06.782Z,7.72
2022-11-14T08:59:36.553Z,7.75
2022-11-14T09:02:06.304Z,7.77
2022-11-14T09:04:36.157Z,7.79
2022-11-14T09:07:09.213Z,7.83
2022-11-14T09:09:39.031Z,7.86
2022-11-14T09:12:09.354Z,7.89
2022-11-14T09:14:39.090Z,7.88
2022-11-14T09:17:08.844Z,7.87
2022-11-14T09:19:38.615Z,7.88
2022-11-14T09:22:11.352Z,7.87
2022-11-14T09:24:41.227Z,7.91
2022-11-14T09:27:10.975Z,7.94
2022-11-14T09:29:40.817Z,7.95
2022-11-14T09:32:10.549Z,7.98
2022-11-14T09:34:43.168Z,8.00
2022-11-14T09:37:15.799Z,8.02
2022-11-14T09:39:45.582Z,8.06
2022-11-14T09:42:31.023Z,8.08
2022-11-14T09:45:02.496Z,8.07
2022-11-14T09:47:34.231Z,8.10
2022-11-14T09:50:10.902Z,8.12
2022-11-14T09:52:47.658Z,8.13
2022-11-14T09:55:21.442Z,8.14
2022-11-14T09:57:52.568Z,8.17
2022-11-14T10:00:24.272Z,8.20
2022-11-14T10:03:06.272Z,8.18
2022-11-14T10:05:48.582Z,8.17
2022-11-14T10:08:37.818Z,8.13
2022-11-14T10:11:13.154Z,8.10
2022-11-14T10:14:02.983Z,8.13
2022-11-14T10:16:41.449Z,8.08
2022-11-14T10:19:21.639Z,8.06
2022-11-14T10:22:09.415Z,8.01
2022-11-14T10:25:04.088Z,8.04
2022-11-14T10:27:39.472Z,8.07
2022-11-14T10:30:15.000Z,8.11
2022-11-14T10:32:59.674Z,8.10
2022-11-14T10:35:35.359Z,8.11
2022-11-14T10:38:12.882Z,8.10
2022-11-14T10:40:48.696Z,8.10
2022-11-14T10:43:26.851Z,8.19
2022-11-14T10:46:00.097Z,8.33
2022-11-14T10:48:34.476Z,8.47
2022-11-14T10:51:09.470Z,8.56
2022-11-14T10:53:50.852Z,8.58
2022-11-14T10:56:23.213Z,8.57
2022-11-14T10:58:53.108Z,8.53
2022-11-14T11:01:40.533Z,8.47
2022-11-14T11:04:16.871Z,8.43
2022-11-14T11:06:46.816Z,8.45
2022-11-14T11:09:31.940Z,8.49
2022-11-14T11:12:06.462Z,8.51
2022-11-14T11:14:37.477Z,8.53
2022-11-14T11:17:40.037Z,8.52
2022-11-14T11:20:32.926Z,8.53
2022-11-14T11:23:07.391Z,8.50
2022-11-14T11:25:37.686Z,8.50
2022-11-14T11:31:09.546Z,8.60
2022-11-14T11:33:40.540Z,8.65
2022-11-14T11:36:17.994Z,8.67
2022-11-14T11:38:50.326Z,8.67
2022-11-14T11:44:21.949Z,8.65
2022-11-14T11:46:56.872Z,8.68
2022-11-14T11:49:35.967Z,8.70
2022-11-14T11:52:09.895Z,8.73
2022-11-14T11:54:53.416Z,8.69
2022-11-14T11:57:36.744Z,8.70
2022-11-14T12:00:18.088Z,8.70
2022-11-14T12:02:50.754Z,8.69
2022-11-14T12:05:27.735Z,8.71
2022-11-14T12:08:04.627Z,8.72
2022-11-14T12:10:39.357Z,8.71
2022-11-14T12:13:35.185Z,8.70
2022-11-14T12:16:19.897Z,8.75
2022-11-14T12:19:46.063Z,8.77
2022-11-14T12:22:41.739Z,8.77
2022-11-14T12:25:43.932Z,8.80
2022-11-14T12:28:29.720Z,8.82
2022-11-14T12:31:03.391Z,8.82
2022-11-14T12:33:40.251Z,8.83
2022-11-14T12:36:13.874Z,8.86
2022-11-14T12:38:49.798Z,8.93
2022-11-14T12:41:30.076Z,8.97
2022-11-14T12:44:21.945Z,9.01
2022-11-14T12:47:16.914Z,9.08
2022-11-14T12:50:16.390Z,9.10
2022-11-14T12:52:54.404Z,9.16
2022-11-14T12:55:57.986Z,9.23
2022-11-14T12:58:48.235Z,9.29
2022-11-14T13:01:33.771Z,9.34
2022-11-14T13:04:19.786Z,9.40
2022-11-14T13:07:03.040Z,9.48
2022-11-14T13:09:44.997Z,9.54
2022-11-14T13:12:43.695Z,9.60
2022-11-14T13:15:43.496Z,9.63
2022-11-14T13:18:41.015Z,9.65
2022-11-14T13:21:33.882Z,9.68
2022-11-14T13:24:03.634Z,9.70
2022-11-14T13:26:47.746Z,9.72
2022-11-14T13:30:00.375Z,9.74
2022-11-14T13:32:59.944Z,9.77
2022-11-14T13:35:40.150Z,9.74
2022-11-14T13:38:37.039Z,9.73
2022-11-14T13:41:24.565Z,9.74
2022-11-14T13:44:27.944Z,9.73
2022-11-14T13:47:18.316Z,9.73
2022-11-14T13:50:00.112Z,9.72
2022-11-14T13:52:34.456Z,9.73
2022-11-14T13:55:05.363Z,9.74
2022-11-14T13:57:48.438Z,9.72
2022-11-14T14:00:21.897Z,9.73
2022-11-14T14:03:19.971Z,9.74
2022-11-14T14:06:06.526Z,9.72
2022-11-14T14:09:00.784Z,9.71
2022-11-14T14:11:43.404Z,9.69
2022-11-14T14:14:29.181Z,9.63
2022-11-14T14:17:05.360Z,9.64
2022-11-14T14:19:49.241Z,9.64
2022-11-14T14:22:25.636Z,9.66
2022-11-14T14:25:04.652Z,9.66
2022-11-14T14:27:56.821Z,9.68
2022-11-14T14:30:26.875Z,9.69
2022-11-14T14:33:14.887Z,9.71
2022-11-14T14:35:54.018Z,9.68
2022-11-14T14:38:30.045Z,9.68
2022-11-14T14:41:00.300Z,9.67
2022-11-14T14:43:34.985Z,9.69
2022-11-14T14:46:04.967Z,9.69
2022-11-14T14:48:42.147Z,9.67
2022-11-14T14:51:16.801Z,9.67
2022-11-14T14:53:56.211Z,9.65
2022-11-14T14:56:28.177Z,9.63
2022-11-14T14:58:58.522Z,9.61
2022-11-14T15:01:34.737Z,9.60
2022-11-14T15:04:09.912Z,9.52
2022-11-14T15:06:41.266Z,9.49
2022-11-14T15:09:13.592Z,9.47
2022-11-14T15:11:46.583Z,9.44
2022-11-14T15:14:19.427Z,9.42
2022-11-14T15:16:51.174Z,9.39
2022-11-14T15:19:27.627Z,9.40
2022-11-14T15:22:10.836Z,9.37
2022-11-14T15:24:40.608Z,9.34
2022-11-14T15:27:16.114Z,9.32
2022-11-14T15:29:48.784Z,9.29
2022-11-14T15:32:22.308Z,9.26
2022-11-14T15:35:14.813Z,9.23
2022-11-14T15:38:28.983Z,9.17
2022-11-14T15:41:24.339Z,9.15
2022-11-14T15:44:01.839Z,9.11
2022-11-14T15:46:40.426Z,9.07
2022-11-14T15:49:22.521Z,9.04
2022-11-14T15:51:57.422Z,8.98
2022-11-14T15:54:30.130Z,8.95
2022-11-14T15:57:02.037Z,8.90
2022-11-14T15:59:34.877Z,8.86
2022-11-14T16:02:09.425Z,8.82
2022-11-14T16:04:46.013Z,8.77
2022-11-14T16:07:20.994Z,8.71
2022-11-14T16:09:50.955Z,8.69
2022-11-14T16:12:20.675Z,8.68
2022-11-14T16:14:50.561Z,8.69
2022-11-14T16:17:21.065Z,8.66
2022-11-14T16:19:50.780Z,8.64
2022-11-14T16:22:23.131Z,8.63
2022-11-14T16:24:53.917Z,8.63
2022-11-14T16:27:26.787Z,8.64
2022-11-14T16:29:57.129Z,8.67
2022-11-14T16:32:33.668Z,8.71
2022-11-14T16:35:03.396Z,8.74
2022-11-14T16:37:35.696Z,8.78
2022-11-14T16:40:05.452Z,8.80
2022-11-14T16:42:35.265Z,8.84
2022-11-14T16:45:05.382Z,8.84
2022-11-14T16:47:35.124Z,8.86
2022-11-14T16:50:04.811Z,8.86
2022-11-14T16:52:37.128Z,8.89
2022-11-14T16:55:07.160Z,8.91
2022-11-14T16:57:37.224Z,8.92
2022-11-14T17:00:08.712Z,8.94
2022-11-14T17:02:38.406Z,8.97
2022-11-14T17:05:08.693Z,8.97
2022-11-14T17:07:41.044Z,8.99
2022-11-14T17:10:11.518Z,8.96
2022-11-14T17:12:41.227Z,8.94
2022-11-14T17:15:11.645Z,8.93
2022-11-14T17:17:41.348Z,8.93
2022-11-14T17:20:12.430Z,8.92
2022-11-14T17:22:44.822Z,8.90
2022-11-14T17:25:14.800Z,8.87
2022-11-14T17:27:44.526Z,8.86
2022-11-14T17:30:15.620Z,8.85
2022-11-14T17:32:45.577Z,8.84
2022-11-14T17:35:15.876Z,8.84
2022-11-14T17:37:48.166Z,8.81
2022-11-14T17:40:18.901Z,8.82
2022-11-14T17:42:48.620Z,8.82
2022-11-14T17:45:18.359Z,8.82
2022-11-14T17:47:48.080Z,8.81
2022-11-14T17:50:18.762Z,8.80
2022-11-14T17:52:51.151Z,8.78
2022-11-14T17:55:20.879Z,8.78
2022-11-14T17:57:50.625Z,8.76
2022-11-14T18:00:21.772Z,8.75
2022-11-14T18:02:52.480Z,8.72
2022-11-14T18:05:22.304Z,8.70
2022-11-14T18:07:54.655Z,8.63
2022-11-14T18:10:24.423Z,8.56
2022-11-14T18:12:54.150Z,8.51
2022-11-14T18:15:27.694Z,8.47
2022-11-14T18:17:57.985Z,8.42
2022-11-14T18:20:28.240Z,8.38
2022-11-14T18:23:00.560Z,8.34
2022-11-14T18:25:31.890Z,8.28
2022-11-14T18:28:01.575Z,8.24
2022-11-14T18:30:46.790Z,8.23
2022-11-14T18:33:17.112Z,8.21
2022-11-14T18:35:46.920Z,8.20
2022-11-14T18:38:19.228Z,8.20
2022-11-14T18:40:55.882Z,8.18
2022-11-14T18:43:28.585Z,8.18
2022-11-14T18:45:58.757Z,8.16
2022-11-14T18:48:28.575Z,8.15
2022-11-14T18:51:04.127Z,8.14
2022-11-14T18:53:38.875Z,8.13
2022-11-14T18:56:10.798Z,8.14
2022-11-14T18:58:41.518Z,8.14
2022-11-14T19:01:13.488Z,8.14
2022-11-14T19:03:45.040Z,8.14
2022-11-14T19:06:15.795Z,8.15
2022-11-14T19:08:48.135Z,8.17
2022-11-14T19:11:32.864Z,8.18
2022-11-14T19:14:05.099Z,8.23
2022-11-14T19:16:35.622Z,8.26
2022-11-14T19:19:06.194Z,8.27
2022-11-14T19:21:36.465Z,8.27
2022-11-14T19:24:10.185Z,8.27
2022-11-14T19:26:39.905Z,8.26
2022-11-14T19:29:13.540Z,8.22
2022-11-14T19:31:44.180Z,8.22
2022-11-14T19:34:14.127Z,8.21
2022-11-14T19:37:00.810Z,8.22
2022-11-14T19:39:33.779Z,8.24
2022-11-14T19:42:03.678Z,8.27
2022-11-14T19:44:33.672Z,8.27
2022-11-14T19:47:03.412Z,8.24
2022-11-14T19:49:33.714Z,8.19
2022-11-14T19:52:05.247Z,8.17
2022-11-14T19:54:37.683Z,8.13
2022-11-14T19:57:07.510Z,8.06
2022-11-14T19:59:37.200Z,8.01
2022-11-14T20:02:06.929Z,8.00
2022-11-14T20:04:37.981Z,7.97
2022-11-14T20:07:08.058Z,7.94
2022-11-14T20:09:40.464Z,7.90
2022-11-14T20:12:10.246Z,7.86
2022-11-14T20:14:39.980Z,7.88
2022-11-14T20:17:09.689Z,7.89
2022-11-14T20:19:39.441Z,7.88
2022-11-14T20:22:09.350Z,7.89
2022-11-14T20:24:41.678Z,7.91
2022-11-14T20:27:11.723Z,7.92
2022-11-14T20:29:41.458Z,7.94
2022-11-14T20:32:15.640Z,7.96
2022-11-14T20:34:45.809Z,7.97
2022-11-14T20:37:15.512Z,7.98
2022-11-14T20:39:47.837Z,7.98
2022-11-14T20:42:17.535Z,7.99
2022-11-14T20:44:47.284Z,8.00
2022-11-14T20:47:17.535Z,8.02
2022-11-14T20:49:47.690Z,8.04
2022-11-14T20:52:18.863Z,8.06
2022-11-14T20:54:51.168Z,8.10
2022-11-14T20:57:20.851Z,8.16
2022-11-14T20:59:50.785Z,8.19
2022-11-14T21:02:20.583Z,8.25
2022-11-14T21:04:50.332Z,8.27
2022-11-14T21:07:20.297Z,8.32
2022-11-14T21:10:13.192Z,8.36
2022-11-14T21:12:48.395Z,8.42
2022-11-14T21:15:19.318Z,8.45
2022-11-14T21:17:49.035Z,8.48
2022-11-14T21:20:19.559Z,8.50
2022-11-14T21:22:49.297Z,8.54
2022-11-14T21:25:21.736Z,8.55
2022-11-14T21:27:51.689Z,8.55
2022-11-14T21:30:21.583Z,8.58
2022-11-14T21:32:51.316Z,8.61
2022-11-14T21:35:21.031Z,8.63
2022-11-14T21:37:50.752Z,8.61
2022-11-14T21:40:23.103Z,8.65
2022-11-14T21:42:52.848Z,8.65
2022-11-14T21:45:22.574Z,8.64
2022-11-14T21:47:52.283Z,8.68
2022-11-14T21:50:22.213Z,8.69
2022-11-14T21:52:52.079Z,8.69
2022-11-14T21:55:24.531Z,8.69
2022-11-14T21:57:57.160Z,8.70
2022-11-14T22:00:27.232Z,8.71
2022-11-14T22:03:09.352Z,8.71
2022-11-14T22:05:39.058Z,8.72
2022-11-14T22:08:08.902Z,8.74
2022-11-14T22:10:42.411Z,8.74
2022-11-14T22:13:12.280Z,8.76
2022-11-14T22:15:42.263Z,8.76
2022-11-14T22:18:11.974Z,8.77
2022-11-14T22:20:41.849Z,8.80
2022-11-14T22:23:11.579Z,8.81
2022-11-14T22:25:43.895Z,8.80
2022-11-14T22:28:13.631Z,8.81
2022-11-14T22:30:43.444Z,8.82
2022-11-14T22:33:13.150Z,8.83
2022-11-14T22:35:42.844Z,8.87
2022-11-14T22:38:12.586Z,8.88
2022-11-14T22:40:44.899Z,8.89
2022-11-14T22:43:14.917Z,8.91
2022-11-14T22:45:44.636Z,8.92
2022-11-14T22:48:14.327Z,8.96
2022-11-14T22:50:44.008Z,8.96
2022-11-14T22:53:13.755Z,8.99
2022-11-14T22:55:52.424Z,9.02
2022-11-14T22:58:22.107Z,9.05
2022-11-14T23:00:52.732Z,9.08
2022-11-14T23:03:24.208Z,9.09
2022-11-14T23:05:53.956Z,9.13
2022-11-14T23:08:23.827Z,9.16
2022-11-14T23:10:57.544Z,9.18
2022-11-14T23:13:27.273Z,9.18
2022-11-14T23:15:56.984Z,9.21
2022-11-14T23:18:26.891Z,9.22
2022-11-14T23:20:56.993Z,9.24
2022-11-14T23:23:26.887Z,9.26
2022-11-14T23:25:59.328Z,9.30
2022-11-14T23:28:29.248Z,9.31
2022-11-14T23:31:00.284Z,9.34
2022-11-14T23:33:30.553Z,9.35
2022-11-14T23:36:00.636Z,9.37
2022-11-14T23:38:30.733Z,9.38
2022-11-14T23:41:04.810Z,9.39
2022-11-14T23:43:34.783Z,9.41
2022-11-14T23:46:04.663Z,9.39
2022-11-14T23:48:34.533Z,9.39
2022-11-14T23:51:04.359Z,9.41
2022-11-14T23:53:34.508Z,9.43
2022-11-14T23:56:07.553Z,9.43
2022-11-14T23:58:37.693Z,9.43
